Lambertville, New Jersey
Current Conditions -  °F | °C
As of 6:53 PM on Sunday 23 Nov 2014 (Local Time) from KTTN Reporting Station
Clear Clear  
Wind Chill: 47°   Ceiling: Unl
Heat Index: 49°   Visibility: 10mi
Dew Point: 28°   Wind: 5mph
Humidity: 44%   Direction: 180°S
Pressure: 30.11"   Gusts: NA
Location:  40.37°N, 74.94°W
Report Text: KTTN 232353Z 18004KT 10SM CLR 09/M02 A3011 RMK AO2 SLP191 T00941022 10133 20083 56008
Loading
Personal Weather Stations






























Interactive Weather Map New forecast layout! Learn more

10-Day Weather Forecast

Advertisements
Track Severe Weather on mobile